Flight Track Log - Related Links

Times and Time Zones

All times are in EDT time to prevent confusion due to time zone crossing. See the GJS3710 flight status page for this flight to view local times or setup timezone preferences in your user account.

Time Position Orientation Groundspeed Altitude Reporting Facility
EDT Latitude Longitude Course Direction KTS MPH feet Rate Location/Type
Fri 02:57:51 PM 39.8017 -104.6303 95° East 181 208 7,300  Level Denver Center
Fri 02:58:53 PM 39.7658 -104.5633 125° Southeast 235 270 9,000 1,306 Climbing Denver Center
Fri 02:59:55 PM 39.7678 -104.4544 89° East 281 323 10,000 1,403 Climbing Denver Center
Fri 03:00:00 PM 39.7667 -104.0395 90° East  Level FlightAware Approximate
Fri 03:00:57 PM 39.7686 -104.3483 89° East 293 337 11,900  Level Denver Center
Fri 03:01:00 PM 39.7592 -103.8811 100° East  Level FlightAware Approximate
Fri 03:01:59 PM 39.7669 -104.2256 91° East 315 362 14,200  Level Denver Center
Fri 03:02:00 PM 39.7317 -103.7265 95° East  Level FlightAware Approximate
Fri 03:03:00 PM 39.7204 -103.5680 95° East  Level FlightAware Approximate
Fri 03:03:13 PM 39.7658 -104.1056 91° East 332 382 16,200  Level Denver Center
Fri 03:04:16 PM 39.7636 -103.9497 91° East 351 404 18,100 1,776 Climbing Denver Center
Fri 03:05:18 PM 39.7483 -103.8025 98° East 379 436 19,900 1,306 Climbing Denver Center
Fri 03:06:20 PM 39.7353 -103.6653 97° East 401 461 20,800 1,016 Climbing Denver Center
Fri 03:07:22 PM 39.7211 -103.4947 96° East 416 479 22,000 1,210 Climbing Denver Center
Fri 03:08:24 PM 39.7081 -103.3214 96° East 445 512 23,300 1,161 Climbing Denver Center
Fri 03:09:26 PM 39.6944 -103.1617 96° East 460 529 24,400 1,210 Climbing Denver Center
Fri 03:10:28 PM 39.6797 -102.9767 96° East 463 533 25,800 1,210 Climbing Denver Center
Fri 03:11:30 PM 39.6656 -102.8192 97° East 461 531 26,900 1,113 Climbing Denver Center
Fri 03:12:32 PM 39.6497 -102.6350 96° East 461 531 28,100 1,065 Climbing Denver Center
Fri 03:13:34 PM 39.6361 -102.4758 96° East 464 534 29,100 1,016 Climbing Denver Center
Fri 03:14:36 PM 39.6192 -102.2869 97° East 471 542 30,200 1,016 Climbing Denver Center
Fri 03:15:38 PM 39.6039 -102.1269 97° East 470 541 31,200 968 Climbing Denver Center
Fri 03:16:40 PM 39.5872 -101.9386 96° East 471 542 32,200 871 Climbing Denver Center
Fri 03:17:42 PM 39.5758 -101.7758 95° East 474 545 33,000 823 Climbing Denver Center
Fri 03:18:44 PM 39.5608 -101.5867 96° East 473 544 33,900 774 Climbing Denver Center
Fri 03:19:46 PM 39.5458 -101.4228 97° East 478 550 34,600 774 Climbing Denver Center
Fri 03:20:48 PM 39.5189 -101.2336 100° East 480 552 35,500 823 Climbing Denver Center
Fri 03:21:50 PM 39.4950 -101.0714 101° East 480 552 36,300 726 Climbing Denver Center
Fri 03:22:52 PM 39.4711 -100.9097 101° East 480 552 37,000 339 Climbing Denver Center
Fri 03:23:54 PM 39.4419 -100.7206 101° East 481 554 37,000  Level Denver Center
Fri 03:24:56 PM 39.4167 -100.5517 101° East 494 568 37,000 242 Level Denver Center
Fri 03:25:58 PM 39.3858 -100.3533 101° East 503 579 37,500 581 Climbing Denver Center
Fri 03:27:00 PM 39.3600 -100.1850 101° East 502 578 38,200 726 Climbing Denver Center
Fri 03:28:02 PM 39.3294 -99.9969 102° East 486 559 39,000 387 Climbing Denver Center
Fri 03:29:04 PM 39.3031 -99.8331 102° East 485 558 39,000  Level Denver Center
Fri 03:30:06 PM 39.2719 -99.6392 102° East 494 568 39,000  Level Denver Center
Fri 03:31:08 PM 39.2447 -99.4700 102° East 501 577 39,000  Level Denver Center
Fri 03:32:11 PM 39.2200 -99.2703 99° East 507 583 39,000  Level Denver Center
Fri 03:33:13 PM 39.2192 -99.0958 90° East 511 588 39,000  Level Denver Center
Fri 03:34:15 PM 39.2178 -98.9056 90° East 507 583 39,000  Level Denver Center
Fri 03:35:27 PM 39.2158 -98.6950 91° East 503 579 39,000  Level Kansas City Center
Fri 03:36:29 PM 39.2156 -98.5053 90° East 509 586 39,000  Level Kansas City Center
Fri 03:37:31 PM 39.2142 -98.3136 90° East 509 586 39,000  Level Kansas City Center
Fri 03:38:33 PM 39.2122 -98.1311 91° East 508 585 39,000  Level Kansas City Center
Fri 03:39:35 PM 39.2094 -97.9467 91° East 512 589 39,000  Level Kansas City Center
Fri 03:40:37 PM 39.2069 -97.7319 91° East 512 589 39,000  Level Kansas City Center
Fri 03:41:39 PM 39.2036 -97.5569 91° East 509 586 39,000  Level Kansas City Center
Fri 03:42:41 PM 39.2003 -97.3503 91° East 515 593 39,000  Level Kansas City Center
Fri 03:43:43 PM 39.1969 -97.1736 91° East 515 593 39,000  Level Kansas City Center
Fri 03:44:45 PM 39.1942 -96.9692 91° East 512 589 39,000  Level Kansas City Center
Fri 03:45:47 PM 39.1894 -96.7917 92° East 517 595 39,000  Level Kansas City Center
Fri 03:46:49 PM 39.1844 -96.6139 92° East 519 597 39,000  Level Kansas City Center
Fri 03:47:52 PM 39.1783 -96.4050 92° East 522 601 39,000  Level Kansas City Center
Fri 03:48:54 PM 39.1728 -96.2272 92° East 521 600 39,000  Level Kansas City Center
Fri 03:49:56 PM 39.1672 -96.0194 92° East 520 598 39,000  Level Kansas City Center
Fri 03:50:58 PM 39.1611 -95.8419 92° East 520 598 39,000  Level Kansas City Center
Fri 03:52:00 PM 39.1558 -95.6347 92° East 519 597 39,000  Level Kansas City Center
Fri 03:53:02 PM 39.1486 -95.4442 93° East 520 598 39,000  Level Kansas City Center
Fri 03:54:04 PM 39.1411 -95.2442 93° East 523 602 39,000  Level Kansas City Center
Fri 03:55:06 PM 39.1333 -95.0514 93° East 523 602 39,000  Level Kansas City Center
Fri 03:56:08 PM 39.1267 -94.8750 93° East 520 598 39,000  Level Kansas City Center
Fri 03:57:10 PM 39.1169 -94.6667 93° East 524 603 39,000  Level Kansas City Center
Fri 03:58:12 PM 39.1108 -94.4897 92° East 519 597 39,000  Level Kansas City Center
Fri 03:59:14 PM 39.1014 -94.2833 93° East 517 595 39,000  Level Kansas City Center
Fri 04:00:16 PM 39.0914 -94.1061 94° East 518 596 39,000 -290 Level Kansas City Center
Fri 04:01:18 PM 39.0617 -93.9314 102° East 521 600 38,400 -823 Descending Kansas City Center
Fri 04:02:20 PM 39.0292 -93.7283 102° East 520 598 37,300 -1,065 Descending Kansas City Center
Fri 04:03:22 PM 39.0003 -93.5319 101° East 516 594 36,200 -1,258 Descending Kansas City Center
Fri 04:04:24 PM 38.9728 -93.3564 101° East 508 585 34,700 -1,452 Descending Kansas City Center
Fri 04:05:26 PM 38.9417 -93.1861 103° East 499 574 33,200 -1,452 Descending Kansas City Center
Fri 04:06:28 PM 38.9133 -93.0153 102° East 491 565 31,700 -1,452 Descending Kansas City Center
Fri 04:07:30 PM 38.8833 -92.8439 103° East 491 565 30,200 -1,488 Descending Kansas City Center
Fri 04:08:33 PM 38.8544 -92.6717 102° East 492 566 28,600 -1,632 Descending Kansas City Center
Fri 04:09:35 PM 38.8261 -92.5036 102° East 484 557 26,800 -1,887 Descending Kansas City Center
Fri 04:10:37 PM 38.7936 -92.3133 102° East 464 534 24,700 -1,935 Descending Kansas City Center
Fri 04:11:39 PM 38.7675 -92.1692 103° East 427 491 22,800 -1,790 Descending Kansas City Center
Fri 04:12:41 PM 38.7425 -92.0258 103° East 414 476 21,000 -1,694 Descending Kansas City Center
Fri 04:13:43 PM 38.7167 -91.8839 103° East 409 471 19,300 -1,452 Descending Kansas City Center
Fri 04:14:45 PM 38.6925 -91.7450 103° East 401 461 18,000 -1,452 Descending Kansas City Center
Fri 04:15:47 PM 38.6933 -91.6094 90° East 380 437 16,300 -1,597 Descending Kansas City Center
Fri 04:16:49 PM 38.6919 -91.4750 91° East 378 435 14,700 -1,597 Descending Kansas City Center
Fri 04:17:51 PM 38.6931 -91.3467 89° East 370 426 13,000 -1,694 Descending Kansas City Center
Fri 04:18:53 PM 38.6942 -91.1969 89° East 360 414 11,200 -1,452 Descending Kansas City Center
Fri 04:19:55 PM 38.7064 -91.0869 82° East 333 383 10,000 -1,306 Descending Kansas City Center
Fri 04:20:57 PM 38.7247 -90.9886 77° East 301 346 8,500 -1,452 Descending Kansas City Center
Fri 04:21:59 PM 38.7425 -90.8936 76° East 287 330 7,000 -871 Descending Kansas City Center
Fri 04:23:01 PM 38.7586 -90.8031 77° East 273 314 6,700 -677 Descending Kansas City Center
Fri 04:24:03 PM 38.7742 -90.7167 77° East 261 300 5,600 -1,161 Descending Kansas City Center
Fri 04:25:05 PM 38.7889 -90.6342 77° East 218 251 4,300 -1,210 Descending Kansas City Center
Fri 04:26:07 PM 38.8008 -90.5733 76° East 190 219 3,100 -871 Descending Kansas City Center
Fri 04:27:09 PM 38.8111 -90.5167 77° East 183 211 2,500 -581 Descending Kansas City Center

Login

Don't have an account? Register now (free) for customized features, flight alerts, and more!